Etusivu
METAR-TAF:

METAR-TAF

Lentoasemat :

Kunming, Kiina

Leveyspiiri: 25-01N, Pituuspiiri: 102-41E, korkeus merenpinnasta: 1892 m

Tämänhetkinen sää

Tämä raportti tehtiin 1 tunti ja 4 minuuttia sitten, kello 18.00 UTC
Tuuli 8 kn etelästä/lounaasta
Lämpötila 17°C
Kosteus 94%
Ilmanpaine 1022 hPa
Näkyvyys 10 km tai enemmän
ei pilviä alle 1500 m:ssä eikä cumulonimbus-pilviä

METAR: ZPPP 191800Z 21004MPS CAVOK 17/16 Q1022 NOSIG

Aika: 03:04 (19:04 UTC)

Sääennuste

Tämä raportti tehtiin 6 tuntia ja 3 minuuttia sitten, kello 13.01 UTC
Ennuste voimassa 19. päivästä klo 18 UTC - 20. päivään klo 18 UTC
Tuuli 8 kn lounaasta
Näkyvyys 10 km tai enemmän
Hajanaisia pilviä 2600 ft:n korkeudessa
Tulossa
19. päivästä klo 21 UTC - 19. päivään klo 22 UTC
Tuuli 12 kn koillisesta

TAF: ZPPP 191301Z 1918/2018 22004MPS 9999 SCT026 TX22/2008Z TN16/1923Z BECMG 1921/1922 04006MPS

Säähavainnot ja -ennusteet yli 4000 lentoasemalta (METAR- ja TAF-raportit).

Käytössä olevat sääasemat on merkitty karttaan keltaisilla ja punaisilla pisteillä.

Aseta hiiri pisteen päälle nähdäksesi sääaseman nimen.

Klikkaa sitten nähdäksesi säähavainnot ja -ennusteet.

Kartan vaihtaminen: klikkaa mustalla rastilla varustettuja vihreitä pisteitä, niin voit zoomata sisään; viivalla varustettua vihreää pistettä, niin voit zoomata ulos tai vihreitä nuolia, niin pääset viereisille kartoille.


METAR-TAF: